createdAt,value
2022-08-03T00:00:56.454Z,91.67
2022-08-03T00:01:56.431Z,92.48
2022-08-03T00:02:56.480Z,92.28
2022-08-03T00:03:56.410Z,92.28
2022-08-03T00:04:56.394Z,92.08
2022-08-03T00:06:04.887Z,91.97
2022-08-03T00:06:56.379Z,91.87
2022-08-03T00:07:56.374Z,92.58
2022-08-03T00:08:56.357Z,92.48
2022-08-03T00:09:56.350Z,91.77
2022-08-03T00:10:56.342Z,91.97
2022-08-03T00:11:56.330Z,91.67
2022-08-03T00:12:56.302Z,92.48
2022-08-03T00:13:56.326Z,92.32
2022-08-03T00:14:56.294Z,92.48
2022-08-03T00:15:56.322Z,92.42
2022-08-03T00:16:57.249Z,92.63
2022-08-03T00:17:56.278Z,92.83
2022-08-03T00:19:23.013Z,93.03
2022-08-03T00:19:56.253Z,93.43
2022-08-03T00:20:56.236Z,93.03
2022-08-03T00:21:56.225Z,93.63
2022-08-03T00:22:56.214Z,93.03
2022-08-03T00:23:56.208Z,93.33
2022-08-03T00:24:56.192Z,93.13
2022-08-03T00:25:56.201Z,93.13
2022-08-03T00:26:56.169Z,92.83
2022-08-03T00:27:56.177Z,93.23
2022-08-03T00:28:56.151Z,92.72
2022-08-03T00:29:57.616Z,93.23
2022-08-03T00:30:56.156Z,93.13
2022-08-03T00:31:59.589Z,93.03
2022-08-03T00:32:56.117Z,93.63
2022-08-03T00:33:59.512Z,93.74
2022-08-03T00:34:58.493Z,93.13
2022-08-03T00:35:56.093Z,93.33
2022-08-03T00:36:56.051Z,93.23
2022-08-03T00:37:56.050Z,93.63
2022-08-03T00:38:56.041Z,93.23
2022-08-03T00:39:56.067Z,93.03
2022-08-03T00:40:56.031Z,93.13
2022-08-03T00:41:56.026Z,93.23
2022-08-03T00:42:56.005Z,92.83
2022-08-03T00:43:55.995Z,93.23
2022-08-03T00:44:55.977Z,92.83
2022-08-03T00:45:56.001Z,92.02
2022-08-03T00:46:57.598Z,93.13
2022-08-03T00:47:55.959Z,92.83
2022-08-03T00:48:56.013Z,93.63
2022-08-03T00:49:55.920Z,93.84
2022-08-03T00:50:55.924Z,93.58
2022-08-03T00:51:55.899Z,94.09
2022-08-03T00:52:55.962Z,93.58
2022-08-03T00:53:55.879Z,93.78
2022-08-03T00:54:56.121Z,93.88
2022-08-03T00:55:55.868Z,93.68
2022-08-03T00:57:00.112Z,93.68
2022-08-03T00:57:55.840Z,93.18
2022-08-03T00:58:55.875Z,93.48
2022-08-03T00:59:55.822Z,93.27
2022-08-03T01:00:55.950Z,93.99
2022-08-03T01:01:55.804Z,93.07
2022-08-03T01:02:55.800Z,93.48
2022-08-03T01:03:55.776Z,93.38
2022-08-03T01:04:55.802Z,93.27
2022-08-03T01:05:55.773Z,93.38
2022-08-03T01:06:55.739Z,93.38
2022-08-03T01:07:55.744Z,93.78
2022-08-03T01:08:55.721Z,93.07
2022-08-03T01:09:55.701Z,93.48
2022-08-03T01:10:55.781Z,93.38
2022-08-03T01:12:00.028Z,94.09
2022-08-03T01:12:55.681Z,93.88
2022-08-03T01:14:01.484Z,94.19
2022-08-03T01:14:55.690Z,94.29
2022-08-03T01:15:55.652Z,93.48
2022-08-03T01:16:55.662Z,94.39
2022-08-03T01:17:55.620Z,93.78
2022-08-03T01:18:55.613Z,94.09
2022-08-03T01:19:55.612Z,94.39
2022-08-03T01:20:55.603Z,94.13
2022-08-03T01:21:55.583Z,94.43
2022-08-03T01:22:55.597Z,94.74
2022-08-03T01:23:55.578Z,93.88
2022-08-03T01:24:55.568Z,94.19
2022-08-03T01:25:55.549Z,93.68
2022-08-03T01:26:55.561Z,94.09
2022-08-03T01:27:55.537Z,94.39
2022-08-03T01:28:55.513Z,93.99
2022-08-03T01:29:55.491Z,94.49
2022-08-03T01:30:55.486Z,94.29
2022-08-03T01:33:02.686Z,95.00
2022-08-03T01:33:08.108Z,94.34
2022-08-03T01:33:55.452Z,94.23
2022-08-03T01:34:55.446Z,93.78
2022-08-03T01:35:55.420Z,94.64
2022-08-03T01:36:55.436Z,94.23
2022-08-03T01:37:55.433Z,94.74
2022-08-03T01:38:55.414Z,94.74
2022-08-03T01:39:55.439Z,94.13
2022-08-03T01:40:55.391Z,94.74
2022-08-03T01:41:55.368Z,95.14
2022-08-03T01:42:55.395Z,95.14
2022-08-03T01:44:30.250Z,94.64
2022-08-03T01:44:55.363Z,95.04
2022-08-03T01:45:55.329Z,94.43
2022-08-03T01:46:55.315Z,94.54
2022-08-03T01:47:55.357Z,94.23
2022-08-03T01:48:55.374Z,94.43
2022-08-03T01:49:55.283Z,93.42
2022-08-03T01:50:55.279Z,93.32
2022-08-03T01:52:03.276Z,93.52
2022-08-03T01:52:55.298Z,94.19
2022-08-03T01:53:55.240Z,93.68
2022-08-03T01:54:55.244Z,93.68
2022-08-03T01:55:55.237Z,93.68
2022-08-03T01:56:55.208Z,93.78
2022-08-03T01:58:05.604Z,94.34
2022-08-03T01:58:55.230Z,94.23
2022-08-03T01:59:55.178Z,93.62
2022-08-03T02:00:55.307Z,94.23
2022-08-03T02:02:27.649Z,94.13
2022-08-03T02:02:55.823Z,93.73
2022-08-03T02:04:02.960Z,93.02
2022-08-03T02:04:55.146Z,93.02
2022-08-03T02:06:17.903Z,92.47
2022-08-03T02:07:05.421Z,92.57
2022-08-03T02:07:55.089Z,91.96
2022-08-03T02:08:55.105Z,92.87
2022-08-03T02:09:55.072Z,93.07
2022-08-03T02:10:55.071Z,92.47
2022-08-03T02:11:55.049Z,92.77
2022-08-03T02:12:55.050Z,92.77
2022-08-03T02:13:55.043Z,92.57
2022-08-03T02:14:55.028Z,92.87
2022-08-03T02:15:55.018Z,92.97
2022-08-03T02:16:56.425Z,93.07
2022-08-03T02:34:58.223Z,92.57
2022-08-03T02:35:04.278Z,94.23
2022-08-03T02:36:04.240Z,94.03
2022-08-03T02:37:04.279Z,94.03
2022-08-03T02:38:04.296Z,93.52
2022-08-03T02:56:05.210Z,94.23
2022-08-03T02:56:11.293Z,94.58
2022-08-03T02:57:11.560Z,94.58
2022-08-03T02:58:11.199Z,94.78
2022-08-03T02:59:11.182Z,94.62
2022-08-03T03:00:11.172Z,95.13
2022-08-03T03:01:11.226Z,95.13
2022-08-03T03:02:11.134Z,95.03
2022-08-03T03:03:11.300Z,94.93
2022-08-03T03:04:11.165Z,95.03
2022-08-03T03:05:54.682Z,94.42
2022-08-03T03:06:11.194Z,94.73
2022-08-03T03:07:11.112Z,94.48
2022-08-03T03:08:17.623Z,94.83
2022-08-03T03:09:11.108Z,94.58
2022-08-03T03:42:51.052Z,95.48
2022-08-03T03:43:51.956Z,95.58
2022-08-03T03:44:51.957Z,95.58
2022-08-03T03:45:51.967Z,96.09
2022-08-03T03:46:58.695Z,95.68
2022-08-03T03:47:51.915Z,95.79
2022-08-03T03:48:51.965Z,95.68
2022-08-03T03:49:52.360Z,96.19
2022-08-03T03:50:51.912Z,96.30
2022-08-03T03:51:51.915Z,96.09
2022-08-03T03:52:51.878Z,96.50
2022-08-03T03:53:51.890Z,96.60
2022-08-03T03:54:51.853Z,96.60
2022-08-03T03:56:01.891Z,96.84
2022-08-03T03:56:51.859Z,96.75
2022-08-03T03:57:51.852Z,96.44
2022-08-03T03:58:51.814Z,96.64
2022-08-03T03:59:51.816Z,96.14
2022-08-03T04:00:51.835Z,95.63
2022-08-03T04:01:58.820Z,96.23
2022-08-03T04:02:51.825Z,96.39
2022-08-03T04:03:51.763Z,96.34
2022-08-03T04:04:51.765Z,96.30
2022-08-03T04:05:51.732Z,96.39
2022-08-03T04:06:51.742Z,95.99
2022-08-03T04:07:51.989Z,95.99
2022-08-03T04:08:51.736Z,95.48
2022-08-03T04:09:51.686Z,95.99
2022-08-03T04:10:51.683Z,95.89
2022-08-03T04:11:51.674Z,95.89
2022-08-03T04:12:51.671Z,95.89
2022-08-03T04:13:51.681Z,96.09
2022-08-03T04:14:51.667Z,95.89
2022-08-03T04:15:51.628Z,96.09
2022-08-03T04:16:51.632Z,96.39
2022-08-03T04:17:51.623Z,96.30
2022-08-03T04:18:51.604Z,96.64
2022-08-03T04:19:51.602Z,95.94
2022-08-03T04:20:51.598Z,96.54
2022-08-03T04:21:53.214Z,96.84
2022-08-03T04:22:51.577Z,96.64
2022-08-03T04:23:51.545Z,96.84
2022-08-03T04:24:51.631Z,96.75
2022-08-03T04:25:51.553Z,96.84
2022-08-03T04:26:52.912Z,96.64
2022-08-03T04:28:28.359Z,96.75
2022-08-03T04:28:51.522Z,96.95
2022-08-03T04:29:51.502Z,96.95
2022-08-03T04:30:51.491Z,97.05
2022-08-03T04:31:51.469Z,97.05
2022-08-03T04:32:51.478Z,97.35
2022-08-03T04:33:51.443Z,97.45
2022-08-03T04:34:51.569Z,97.56
2022-08-03T04:36:01.758Z,97.66
2022-08-03T04:36:51.438Z,97.56
2022-08-03T04:37:51.413Z,97.45
2022-08-03T04:38:51.400Z,97.15
2022-08-03T04:39:51.382Z,97.35
2022-08-03T04:40:51.402Z,96.95
2022-08-03T04:42:02.202Z,97.25
2022-08-03T04:42:52.059Z,97.35
2022-08-03T04:43:51.351Z,97.35
2022-08-03T04:44:51.366Z,97.05
2022-08-03T04:45:51.311Z,97.25
2022-08-03T04:46:52.725Z,97.05
2022-08-03T04:47:51.302Z,97.45
2022-08-03T04:48:51.307Z,97.05
2022-08-03T04:49:51.277Z,97.25
2022-08-03T04:50:52.056Z,97.45
2022-08-03T04:51:51.288Z,96.95
2022-08-03T04:52:51.265Z,97.00
2022-08-03T04:53:51.252Z,97.35
2022-08-03T04:54:51.254Z,97.56
2022-08-03T04:55:51.219Z,97.66
2022-08-03T04:56:51.229Z,97.51
2022-08-03T04:57:51.215Z,97.11
2022-08-03T04:58:51.216Z,97.92
2022-08-03T04:59:51.180Z,97.51
2022-08-03T05:00:51.176Z,97.20
2022-08-03T05:01:51.203Z,97.51
2022-08-03T05:02:51.189Z,97.71
2022-08-03T05:03:51.156Z,97.51
2022-08-03T05:04:51.133Z,97.61
2022-08-03T05:05:51.118Z,97.61
2022-08-03T05:06:54.892Z,97.11
2022-08-03T05:07:51.126Z,97.71
2022-08-03T05:08:51.095Z,97.41
2022-08-03T05:09:53.027Z,97.71
2022-08-03T05:10:51.108Z,98.02
2022-08-03T05:11:51.068Z,98.12
2022-08-03T05:12:51.059Z,97.92
2022-08-03T05:13:51.277Z,97.81
2022-08-03T05:14:51.030Z,98.12
2022-08-03T05:15:51.007Z,98.22
2022-08-03T05:16:51.053Z,98.12
2022-08-03T05:17:50.995Z,98.02
2022-08-03T05:18:51.002Z,97.41
2022-08-03T05:19:50.976Z,98.02
2022-08-03T05:20:51.015Z,98.02
2022-08-03T05:21:52.543Z,98.32
2022-08-03T05:22:50.969Z,98.32
2022-08-03T05:23:50.963Z,98.52
2022-08-03T05:24:50.950Z,98.32
2022-08-03T05:25:50.923Z,98.83
2022-08-03T05:26:50.901Z,98.73
2022-08-03T05:27:50.886Z,98.93
2022-08-03T05:28:51.572Z,98.73
2022-08-03T05:29:51.782Z,98.88
2022-08-03T05:30:50.886Z,98.32
2022-08-03T05:31:50.851Z,98.22
2022-08-03T05:32:50.869Z,98.79
2022-08-03T05:33:50.828Z,98.28
2022-08-03T05:34:50.832Z,98.48
2022-08-03T05:35:55.819Z,98.18
2022-08-03T05:36:51.077Z,98.38
2022-08-03T05:37:54.759Z,98.79
2022-08-03T05:38:50.775Z,98.48
2022-08-03T05:39:50.768Z,98.68
2022-08-03T05:40:57.470Z,98.58
2022-08-03T05:41:50.757Z,98.18
2022-08-03T05:42:50.752Z,97.97
2022-08-03T05:43:50.730Z,97.97
2022-08-03T05:44:50.720Z,97.92
2022-08-03T05:46:12.352Z,98.74
2022-08-03T05:46:50.731Z,98.13
2022-08-03T05:47:50.686Z,98.74
2022-08-03T05:48:50.690Z,98.43
2022-08-03T05:49:50.666Z,98.74
2022-08-03T05:50:50.680Z,98.63
2022-08-03T05:52:00.034Z,98.74
2022-08-03T05:52:50.663Z,98.74
2022-08-03T05:53:50.616Z,98.94
2022-08-03T05:54:56.211Z,99.14
2022-08-03T05:55:55.399Z,99.65
2022-08-03T05:56:50.614Z,99.65
2022-08-03T05:57:50.596Z,99.35
2022-08-03T05:58:50.600Z,99.65
2022-08-03T05:59:57.865Z,99.95
2022-08-03T06:00:50.545Z,99.75
2022-08-03T06:01:50.652Z,99.75
2022-08-03T06:02:50.529Z,99.60
2022-08-03T06:03:50.535Z,99.40
2022-08-03T06:04:50.512Z,99.30
2022-08-03T06:05:57.382Z,99.10
2022-08-03T06:06:50.509Z,98.99
2022-08-03T06:07:50.479Z,99.19
2022-08-03T06:08:50.465Z,98.79
2022-08-03T06:10:36.157Z,98.39
2022-08-03T06:10:50.450Z,98.34
2022-08-03T06:11:50.437Z,98.74
2022-08-03T06:12:50.436Z,98.24
2022-08-03T06:13:50.409Z,98.65
2022-08-03T06:14:50.403Z,98.74
2022-08-03T06:15:50.398Z,98.85
2022-08-03T06:16:50.386Z,98.44
2022-08-03T06:17:50.391Z,98.74
2022-08-03T06:18:50.387Z,98.24
2022-08-03T06:19:50.369Z,98.44
2022-08-03T06:20:50.394Z,97.99
2022-08-03T06:21:50.337Z,98.29
2022-08-03T06:22:51.362Z,98.90
2022-08-03T06:23:53.102Z,98.70
2022-08-03T06:24:53.652Z,97.89
2022-08-03T06:25:50.289Z,97.69
2022-08-03T06:26:50.291Z,97.69
2022-08-03T06:28:56.344Z,98.09
2022-08-03T06:29:01.203Z,98.75
2022-08-03T06:30:01.193Z,98.55
2022-08-03T06:31:01.217Z,97.85
2022-08-03T06:32:01.156Z,98.35
2022-08-03T06:33:01.140Z,98.14
2022-08-03T06:34:34.262Z,97.85
2022-08-03T06:35:01.141Z,98.85
2022-08-03T06:36:01.109Z,99.05
2022-08-03T06:37:02.244Z,98.71
2022-08-03T06:38:01.095Z,99.01
2022-08-03T06:39:01.083Z,99.01
2022-08-03T06:40:01.118Z,99.11
2022-08-03T06:41:01.078Z,99.32
2022-08-03T06:42:01.071Z,99.11
2022-08-03T06:43:01.060Z,99.21
2022-08-03T06:44:03.379Z,99.21
2022-08-03T06:45:01.018Z,99.07
2022-08-03T06:46:01.047Z,98.96
2022-08-03T06:47:00.998Z,99.27
2022-08-03T06:48:01.000Z,99.37
2022-08-03T06:49:01.029Z,99.16
2022-08-03T06:50:16.603Z,98.46
2022-08-03T06:51:00.954Z,98.96
2022-08-03T06:52:06.209Z,99.12
2022-08-03T06:53:00.965Z,98.61
2022-08-03T06:54:00.923Z,98.71
2022-08-03T06:55:00.921Z,99.02
2022-08-03T06:56:00.958Z,99.22
2022-08-03T06:57:00.896Z,99.12
2022-08-03T06:58:03.424Z,98.61
2022-08-03T06:59:00.874Z,98.71
2022-08-03T07:00:08.499Z,98.41
2022-08-03T07:01:00.891Z,98.41
2022-08-03T07:02:00.856Z,98.57
2022-08-03T07:03:07.433Z,98.67
2022-08-03T07:04:00.834Z,97.86
2022-08-03T07:05:00.810Z,97.56
2022-08-03T07:06:00.820Z,97.45
2022-08-03T07:07:00.801Z,96.80
2022-08-03T07:08:00.804Z,96.70
2022-08-03T07:09:00.781Z,97.21
2022-08-03T07:10:00.778Z,97.41
2022-08-03T07:11:00.747Z,97.41
2022-08-03T07:12:00.744Z,97.21
2022-08-03T07:13:00.737Z,96.45
2022-08-03T07:14:00.726Z,97.06
2022-08-03T07:15:02.573Z,95.55
2022-08-03T07:16:00.710Z,95.75
2022-08-03T07:17:01.176Z,96.56
2022-08-03T07:18:00.712Z,95.95
2022-08-03T07:19:00.667Z,95.50
2022-08-03T07:20:00.679Z,94.39
2022-08-03T07:21:00.645Z,95.40
2022-08-03T07:22:02.380Z,93.99
2022-08-03T07:23:00.657Z,94.49
2022-08-03T07:24:00.637Z,93.04
2022-08-03T07:25:00.596Z,94.05
2022-08-03T07:26:00.600Z,92.94
2022-08-03T07:27:00.571Z,94.95
2022-08-03T07:28:00.599Z,94.00
2022-08-03T07:29:00.577Z,91.99
2022-08-03T07:30:00.561Z,92.99
2022-08-03T07:31:00.543Z,89.77
2022-08-03T07:32:00.554Z,90.98
2022-08-03T07:33:00.529Z,92.55
2022-08-03T07:34:00.515Z,92.95
2022-08-03T07:35:01.600Z,89.93
2022-08-03T07:36:00.490Z,91.14
2022-08-03T07:37:00.479Z,91.60
2022-08-03T07:38:00.493Z,87.67
2022-08-03T07:39:00.448Z,90.29
2022-08-03T07:40:00.466Z,86.72
2022-08-03T07:41:00.440Z,89.95
2022-08-03T07:42:00.438Z,89.44
2022-08-03T07:43:00.480Z,89.60
2022-08-03T07:44:00.513Z,85.98
2022-08-03T07:45:00.399Z,88.19
2022-08-03T07:46:00.413Z,88.35
2022-08-03T07:47:03.212Z,84.33
2022-08-03T07:48:00.402Z,85.80
2022-08-03T07:49:00.460Z,82.78
2022-08-03T07:50:00.345Z,86.16
2022-08-03T07:51:00.330Z,81.64
2022-08-03T07:52:00.333Z,83.41
2022-08-03T07:53:00.325Z,86.22
2022-08-03T07:54:00.308Z,84.47
2022-08-03T07:55:00.284Z,79.05
2022-08-03T07:56:00.289Z,84.07
2022-08-03T07:57:00.277Z,83.73
2022-08-03T07:58:00.309Z,80.42
2022-08-03T07:59:00.250Z,79.52
2022-08-03T08:00:01.845Z,78.48
2022-08-03T08:01:00.284Z,78.64
2022-08-03T08:02:00.232Z,76.54
2022-08-03T08:03:00.279Z,77.91
2022-08-03T08:04:00.206Z,77.50
2022-08-03T08:05:05.298Z,78.00
2022-08-03T08:06:00.197Z,79.21
2022-08-03T08:07:00.166Z,74.56
2022-08-03T08:08:00.176Z,78.67
2022-08-03T08:09:00.143Z,77.67
2022-08-03T08:10:00.159Z,77.53
2022-08-03T08:11:00.121Z,76.33
2022-08-03T08:12:00.121Z,76.89
2022-08-03T08:13:00.137Z,77.49
2022-08-03T08:14:00.108Z,78.69
2022-08-03T08:15:00.102Z,77.06
2022-08-03T08:16:00.097Z,72.32
2022-08-03T08:17:02.351Z,74.08
2022-08-03T08:18:00.099Z,71.45
2022-08-03T08:19:00.070Z,72.35
2022-08-03T08:20:00.037Z,74.25
2022-08-03T08:21:00.033Z,70.72
2022-08-03T08:22:02.818Z,71.78
2022-08-03T08:23:01.097Z,72.19
2022-08-03T08:24:00.006Z,67.36
2022-08-03T08:25:01.319Z,71.62
2022-08-03T08:25:59.972Z,72.22
2022-08-03T08:26:59.954Z,70.82
2022-08-03T08:28:29.876Z,69.62
2022-08-03T08:28:59.936Z,72.31
2022-08-03T08:30:07.239Z,70.59
2022-08-03T08:30:59.914Z,70.98
2022-08-03T08:31:59.924Z,69.59
2022-08-03T08:32:59.921Z,69.56
2022-08-03T08:34:04.406Z,70.56
2022-08-03T08:34:59.875Z,68.37
2022-08-03T08:35:59.880Z,70.42
2022-08-03T08:37:00.083Z,67.21
2022-08-03T08:37:59.864Z,69.39
2022-08-03T08:38:59.837Z,69.89
2022-08-03T08:39:59.836Z,63.13
2022-08-03T08:40:59.830Z,65.55
2022-08-03T08:41:59.816Z,63.21
2022-08-03T08:43:00.028Z,64.47
2022-08-03T08:44:00.187Z,62.85
2022-08-03T08:44:59.798Z,64.14
2022-08-03T08:45:59.791Z,64.01
2022-08-03T08:46:59.775Z,60.74
2022-08-03T08:48:03.432Z,62.99
2022-08-03T08:48:59.891Z,62.26
2022-08-03T08:50:09.808Z,56.40
2022-08-03T08:50:59.721Z,62.70
2022-08-03T08:52:01.065Z,59.41
2022-08-03T08:52:59.707Z,58.06
2022-08-03T08:53:59.723Z,51.82
2022-08-03T08:55:00.219Z,54.93
2022-08-03T08:56:00.771Z,55.19
2022-08-03T08:56:59.683Z,52.80
2022-08-03T08:57:59.673Z,50.90
2022-08-03T08:58:59.653Z,56.32
2022-08-03T08:59:59.686Z,56.10
2022-08-03T09:00:59.808Z,49.77
2022-08-03T09:01:59.633Z,52.89
2022-08-03T09:02:59.628Z,50.81
2022-08-03T09:03:59.600Z,51.67
2022-08-03T09:05:04.071Z,48.01
2022-08-03T09:05:59.652Z,50.83
2022-08-03T09:07:19.205Z,49.41
2022-08-03T09:07:59.578Z,51.56
2022-08-03T09:09:04.737Z,46.94
2022-08-03T09:10:10.427Z,50.24
2022-08-03T09:10:59.566Z,45.62
2022-08-03T09:12:20.859Z,46.06
2022-08-03T09:12:59.527Z,45.16
2022-08-03T09:13:59.522Z,43.18
2022-08-03T09:15:16.052Z,48.83
2022-08-03T09:16:01.471Z,44.60
2022-08-03T09:16:59.496Z,41.09
2022-08-03T09:17:59.493Z,43.22
2022-08-03T09:18:59.468Z,43.57
2022-08-03T09:20:03.099Z,40.52
2022-08-03T09:21:03.809Z,41.60
2022-08-03T09:21:59.496Z,44.89
2022-08-03T09:22:59.460Z,41.94
2022-08-03T09:24:04.275Z,43.19
2022-08-03T09:25:22.957Z,37.64
2022-08-03T09:25:59.810Z,36.93
2022-08-03T09:26:59.451Z,35.96
2022-08-03T09:27:59.403Z,37.80
2022-08-03T09:29:04.708Z,37.70
2022-08-03T09:29:59.411Z,37.90
2022-08-03T09:30:59.381Z,38.95
2022-08-03T09:31:59.528Z,38.91
2022-08-03T09:32:59.359Z,37.35
2022-08-03T09:33:59.386Z,37.63
2022-08-03T09:34:59.370Z,36.93
2022-08-03T09:35:59.348Z,36.82
2022-08-03T09:36:59.346Z,39.62
2022-08-03T09:38:11.998Z,36.24
2022-08-03T09:38:59.319Z,37.01
2022-08-03T09:39:59.335Z,39.16
2022-08-03T09:41:00.607Z,36.76
2022-08-03T09:41:59.310Z,40.25
2022-08-03T09:42:59.315Z,34.30
2022-08-03T09:43:59.293Z,34.39
2022-08-03T09:44:59.276Z,38.95
2022-08-03T09:45:59.284Z,38.07
2022-08-03T09:46:59.269Z,33.89
2022-08-03T09:47:59.271Z,38.95
2022-08-03T09:48:59.287Z,30.71
2022-08-03T09:49:59.308Z,34.09
2022-08-03T09:51:13.266Z,38.13
2022-08-03T09:52:38.115Z,33.67
2022-08-03T09:52:59.275Z,29.96
2022-08-03T09:54:00.341Z,29.85
2022-08-03T09:54:59.204Z,35.14
2022-08-03T09:56:33.433Z,32.84
2022-08-03T09:56:59.193Z,36.63
2022-08-03T09:57:59.225Z,33.91
2022-08-03T09:59:00.448Z,28.87
2022-08-03T10:00:04.690Z,35.92
2022-08-03T10:00:59.280Z,30.61
2022-08-03T10:01:59.174Z,28.29
2022-08-03T10:02:59.174Z,33.97
2022-08-03T10:04:03.812Z,32.44
2022-08-03T10:04:59.155Z,33.22
2022-08-03T10:06:00.025Z,33.02
2022-08-03T10:06:59.137Z,36.40
2022-08-03T10:07:59.147Z,29.77
2022-08-03T10:08:59.129Z,28.99
2022-08-03T10:10:28.959Z,32.49
2022-08-03T10:10:59.113Z,35.60
2022-08-03T10:11:59.102Z,36.78
2022-08-03T10:12:59.101Z,39.45
2022-08-03T10:14:01.559Z,34.77
2022-08-03T10:14:59.107Z,35.50
2022-08-03T10:16:22.134Z,40.01
2022-08-03T10:16:59.072Z,35.38
2022-08-03T10:17:59.059Z,39.31
2022-08-03T10:18:59.064Z,36.52
2022-08-03T10:19:59.031Z,45.55
2022-08-03T10:20:59.042Z,43.81
2022-08-03T10:21:59.005Z,41.60
2022-08-03T10:22:59.015Z,46.69
2022-08-03T10:23:59.018Z,43.29
2022-08-03T10:24:58.993Z,40.84
2022-08-03T10:25:58.989Z,39.59
2022-08-03T10:26:58.993Z,48.70
2022-08-03T10:27:58.955Z,43.43
2022-08-03T10:28:58.983Z,44.80
2022-08-03T10:29:58.952Z,41.86
2022-08-03T10:30:58.964Z,45.88
2022-08-03T10:31:59.063Z,44.60
2022-08-03T10:32:58.933Z,41.37
2022-08-03T10:33:58.911Z,40.39
2022-08-03T10:34:59.841Z,43.04
2022-08-03T10:35:58.895Z,39.01
2022-08-03T10:36:58.880Z,44.43
2022-08-03T10:37:59.154Z,45.31
2022-08-03T10:38:58.890Z,40.90
2022-08-03T10:39:58.849Z,38.54
2022-08-03T10:40:59.290Z,41.41
2022-08-03T10:42:00.000Z,40.53
2022-08-03T10:42:58.820Z,39.06
2022-08-03T10:43:58.865Z,41.72
2022-08-03T10:44:58.817Z,41.92
2022-08-03T10:45:58.809Z,43.32
2022-08-03T10:46:58.793Z,45.38
2022-08-03T10:47:58.785Z,46.48
2022-08-03T10:48:58.837Z,53.46
2022-08-03T10:49:58.771Z,46.01
2022-08-03T10:50:58.765Z,44.05
2022-08-03T10:51:58.728Z,45.32
2022-08-03T10:52:58.733Z,48.57
2022-08-03T10:53:58.759Z,48.27
2022-08-03T10:54:58.719Z,46.80
2022-08-03T10:55:58.700Z,42.47
2022-08-03T10:56:58.687Z,41.19
2022-08-03T10:57:59.153Z,48.57
2022-08-03T10:58:58.679Z,45.32
2022-08-03T10:59:58.684Z,46.60
2022-08-03T11:00:58.744Z,45.72
2022-08-03T11:02:01.043Z,45.89
2022-08-03T11:02:58.628Z,51.10
2022-08-03T11:03:58.611Z,45.60
2022-08-03T11:04:58.609Z,43.46
2022-08-03T11:05:58.619Z,47.00
2022-08-03T11:06:58.614Z,51.03
2022-08-03T11:07:58.566Z,45.92
2022-08-03T11:08:58.594Z,49.26
2022-08-03T11:09:58.558Z,50.51
2022-08-03T11:10:58.590Z,45.23
2022-08-03T11:11:58.525Z,44.91
2022-08-03T11:12:58.549Z,42.85
2022-08-03T11:13:58.528Z,40.09
2022-08-03T11:14:58.530Z,39.32
2022-08-03T11:16:02.230Z,51.22
2022-08-03T11:16:58.509Z,40.70
2022-08-03T11:17:58.473Z,44.56
2022-08-03T11:18:58.479Z,44.17
2022-08-03T11:19:58.781Z,43.77
2022-08-03T11:20:58.465Z,43.08
2022-08-03T11:21:58.431Z,43.57
2022-08-03T11:22:58.433Z,50.46
2022-08-03T11:24:04.592Z,47.98
2022-08-03T11:24:58.431Z,44.34
2022-08-03T11:25:58.406Z,42.77
2022-08-03T11:27:00.910Z,42.18
2022-08-03T11:27:58.374Z,42.18
2022-08-03T11:28:58.393Z,39.84
2022-08-03T11:29:58.354Z,47.61
2022-08-03T11:30:58.369Z,45.25
2022-08-03T11:31:58.369Z,47.51
2022-08-03T11:32:58.332Z,43.16
2022-08-03T11:33:58.334Z,43.57
2022-08-03T11:34:58.310Z,49.28
2022-08-03T11:35:58.287Z,47.71
2022-08-03T11:36:58.348Z,43.20
2022-08-03T11:38:03.545Z,44.98
2022-08-03T11:38:58.289Z,46.35
2022-08-03T11:39:58.267Z,47.14
2022-08-03T11:40:58.254Z,50.19
2022-08-03T11:41:58.262Z,47.04
2022-08-03T11:42:58.238Z,48.59
2022-08-03T11:43:58.217Z,42.99
2022-08-03T11:44:58.227Z,45.35
2022-08-03T11:45:58.186Z,42.40
2022-08-03T11:46:58.250Z,43.97
2022-08-03T11:47:58.194Z,45.15
2022-08-03T11:48:58.253Z,45.25
2022-08-03T11:49:58.146Z,46.72
2022-08-03T11:50:58.153Z,52.14
2022-08-03T11:51:58.165Z,45.05
2022-08-03T11:52:58.144Z,48.91
2022-08-03T11:53:58.117Z,46.28
2022-08-03T11:54:58.131Z,43.23
2022-08-03T11:55:58.093Z,44.11
2022-08-03T11:56:58.123Z,42.02
2022-08-03T11:59:03.403Z,41.24
2022-08-03T11:59:24.374Z,42.12
2022-08-03T11:59:58.050Z,40.25
2022-08-03T12:00:58.047Z,45.47
2022-08-03T12:01:58.043Z,43.70
2022-08-03T12:02:58.117Z,43.10
2022-08-03T12:03:58.268Z,48.61
2022-08-03T12:04:58.024Z,44.26
2022-08-03T12:05:58.015Z,45.45
2022-08-03T12:06:58.046Z,45.74
2022-08-03T12:08:04.071Z,43.18
2022-08-03T12:08:58.016Z,43.97
2022-08-03T12:09:58.352Z,45.05
2022-08-03T12:10:57.959Z,43.65
2022-08-03T12:12:00.390Z,43.95
2022-08-03T12:12:57.954Z,44.73
2022-08-03T12:14:48.791Z,39.64
2022-08-03T12:14:57.935Z,42.69
2022-08-03T12:15:57.896Z,45.64
2022-08-03T12:16:57.893Z,47.51
2022-08-03T12:17:58.245Z,48.77
2022-08-03T12:18:57.894Z,47.98
2022-08-03T12:20:02.751Z,45.03
2022-08-03T12:20:57.841Z,42.86
2022-08-03T12:21:57.855Z,43.46
2022-08-03T12:22:57.827Z,42.47
2022-08-03T12:23:57.815Z,40.80
2022-08-03T12:24:57.806Z,41.39
2022-08-03T12:25:57.780Z,37.87
2022-08-03T12:26:59.435Z,38.76
2022-08-03T12:27:57.788Z,39.05
2022-08-03T12:28:59.285Z,39.94
2022-08-03T12:29:58.916Z,43.28
2022-08-03T12:30:57.748Z,40.82
2022-08-03T12:31:57.738Z,41.71
2022-08-03T12:32:57.772Z,40.62
2022-08-03T12:33:58.941Z,41.61
2022-08-03T12:34:57.714Z,42.89
2022-08-03T12:35:57.692Z,50.07
2022-08-03T12:36:57.680Z,45.74
2022-08-03T12:37:57.693Z,44.56
2022-08-03T12:38:57.674Z,44.26
2022-08-03T12:40:00.482Z,42.30
2022-08-03T12:40:57.649Z,43.18
2022-08-03T12:41:57.617Z,45.35
2022-08-03T12:42:57.644Z,41.31
2022-08-03T12:43:57.622Z,44.36
2022-08-03T12:44:57.611Z,43.68
2022-08-03T12:45:57.616Z,41.22
2022-08-03T12:46:57.599Z,40.13
2022-08-03T12:47:57.617Z,49.08
2022-08-03T12:48:57.600Z,43.28
2022-08-03T12:49:57.544Z,38.95
2022-08-03T12:50:57.552Z,42.99
2022-08-03T12:51:57.555Z,44.76
2022-08-03T12:52:57.556Z,46.23
2022-08-03T12:53:57.505Z,43.36
2022-08-03T12:54:57.509Z,46.92
2022-08-03T12:56:04.974Z,43.77
2022-08-03T12:56:57.495Z,45.25
2022-08-03T12:57:57.467Z,42.40
2022-08-03T12:58:57.466Z,45.32
2022-08-03T12:59:57.444Z,46.90
2022-08-03T13:00:57.453Z,43.26
2022-08-03T13:01:57.504Z,41.88
2022-08-03T13:03:26.528Z,39.42
2022-08-03T13:03:57.454Z,43.65
2022-08-03T13:04:57.415Z,49.46
2022-08-03T13:05:57.397Z,41.39
2022-08-03T13:07:02.902Z,41.19
2022-08-03T13:07:58.255Z,39.23
2022-08-03T13:08:57.371Z,37.36
2022-08-03T13:09:57.337Z,37.85
2022-08-03T13:10:57.365Z,37.48
2022-08-03T13:12:02.487Z,37.48
2022-08-03T13:12:57.327Z,37.87
2022-08-03T13:13:57.307Z,39.54
2022-08-03T13:14:57.319Z,39.84
2022-08-03T13:15:57.292Z,45.84
2022-08-03T13:16:57.285Z,49.01
2022-08-03T13:17:57.249Z,44.88
2022-08-03T13:18:57.254Z,42.02
2022-08-03T13:19:57.225Z,45.35
2022-08-03T13:20:57.257Z,43.68
2022-08-03T13:22:04.323Z,46.94
2022-08-03T13:23:00.841Z,46.55
2022-08-03T13:23:57.201Z,47.46
2022-08-03T13:24:57.194Z,50.81
2022-08-03T13:25:57.188Z,45.00
2022-08-03T13:26:57.179Z,45.68
2022-08-03T13:28:04.047Z,44.11
2022-08-03T13:28:57.143Z,48.35
2022-08-03T13:29:57.125Z,40.17
2022-08-03T13:30:57.137Z,45.09
2022-08-03T13:31:57.127Z,43.52
2022-08-03T13:32:57.142Z,49.80
2022-08-03T13:33:57.103Z,41.33
2022-08-03T13:34:57.094Z,45.76
2022-08-03T13:35:57.067Z,46.84
2022-08-03T13:37:08.858Z,44.88
2022-08-03T13:37:57.138Z,43.79
2022-08-03T13:38:57.060Z,39.84
2022-08-03T13:40:12.687Z,39.64
2022-08-03T13:40:57.029Z,39.74
2022-08-03T13:41:57.013Z,44.24
2022-08-03T13:42:57.025Z,44.34
2022-08-03T13:44:18.538Z,41.59
2022-08-03T13:44:56.992Z,43.26
2022-08-03T13:45:57.707Z,45.30
2022-08-03T13:46:56.982Z,39.31
2022-08-03T13:47:56.950Z,42.65
2022-08-03T13:48:56.955Z,41.08
2022-08-03T13:50:01.452Z,40.78
2022-08-03T13:50:56.945Z,39.82
2022-08-03T13:51:56.931Z,41.96
2022-08-03T13:52:56.910Z,41.27
2022-08-03T13:53:56.877Z,41.56
2022-08-03T13:54:57.006Z,42.25
2022-08-03T13:55:56.878Z,45.40
2022-08-03T13:57:00.672Z,45.23
2022-08-03T13:58:10.078Z,42.47